Snav Lazio — IBUH — position and weather

sailwx.info

Track history (hours):
 
Tides and Currents Weather Stations Pressure Air Temp Water Temp Dewpoint Dewpoint Depression Visibility Wind Speed Wind Dir Waves Ship Positions

Snav Lazio

Last reported at 2015-Mar-30 19:33 UTC. Time now 2015-Mar-30 20:07 UTC.
Position N 38°24' E 013°30'.

Length 162 m; draft 6 m.

Type: Passenger vessel. MMSI: 247163100.

Date/timePositionNaut miles runAvg speedWind from/ knotsBaromVisibWave heightAir tempDewpointWater temp
2015-Mar-30 19:33N 38°24' E 013°30'1717.0
2015-Mar-30 18:33N 38°08' E 013°24'2 1.6
2015-Mar-30 17:31N 38°08' E 013°22'0 0.0
2015-Mar-30 16:31N 38°08' E 013°22'0 0.0
2015-Mar-30 15:31N 38°08' E 013°22'0 0.0
2015-Mar-30 14:31N 38°08' E 013°22'0 0.0
2015-Mar-30 13:31N 38°08' E 013°22'0 0.0
2015-Mar-30 12:31N 38°08' E 013°22'0 0.0
2015-Mar-30 11:31N 38°08' E 013°22'0 0.0
2015-Mar-30 10:31N 38°08' E 013°22'0 0.0
2015-Mar-30 09:31N 38°08' E 013°22'0 0.0
2015-Mar-30 08:31N 38°08' E 013°22'0 0.0
2015-Mar-30 07:31N 38°08' E 013°22'0 0.0
2015-Mar-30 06:31N 38°08' E 013°22'0 0.0
2015-Mar-30 05:31N 38°08' E 013°22'0 0.0
2015-Mar-30 04:31N 38°08' E 013°22'8 8.1
2015-Mar-30 03:33N 38°15' E 013°26'1818.1
2015-Mar-30 02:33N 38°33' E 013°32'1818.0
2015-Mar-30 01:32N 38°51' E 013°37'1818.1
2015-Mar-30 00:33N 39°08' E 013°41'1818.0
2015-Mar-29 23:33N 39°26' E 013°46'1818.0
2015-Mar-29 22:33N 39°43' E 013°52'1817.0
2015-Mar-29 21:31N 40°00' E 013°57'1616.5
2015-Mar-29 20:33N 40°16' E 014°01'1717.0
2015-Mar-29 19:34N 40°32' E 014°06'1716.8
2015-Mar-29 18:33N 40°48' E 014°16'2 0.1
2015-Mar-29 04:33N 40°49' E 014°17'1818.0
2015-Mar-29 03:33N 40°33' E 014°08'2018.3
2015-Mar-29 02:28N 40°13' E 014°02'10718.1
2015-Mar-28 20:33N 38°29' E 013°31'1818.2
2015-Mar-28 19:33N 38°11' E 013°26'5 4.7
2015-Mar-28 18:32N 38°08' E 013°22'0 0.0
2015-Mar-28 17:33N 38°08' E 013°22'0 0.0
2015-Mar-28 16:33N 38°08' E 013°22'0 0.0
2015-Mar-28 15:33N 38°08' E 013°22'0 0.0
2015-Mar-28 14:33N 38°08' E 013°22'0 0.0
2015-Mar-28 13:33N 38°08' E 013°22'0 0.0
2015-Mar-28 12:33N 38°08' E 013°22'0 0.0
2015-Mar-28 11:33N 38°08' E 013°22'0 0.0
2015-Mar-28 10:33N 38°08' E 013°22'0 0.0
2015-Mar-28 09:33N 38°08' E 013°22'0 0.0
2015-Mar-28 08:33N 38°08' E 013°22'0 0.0
2015-Mar-28 07:33N 38°08' E 013°22'0 0.0
2015-Mar-28 06:33N 38°08' E 013°22'0 0.0
2015-Mar-28 05:32N 38°08' E 013°22'13316.6
2015-Mar-27 21:33N 40°17' E 014°02'1818.4
2015-Mar-27 20:33N 40°35' E 014°07'12 0.7
2015-Mar-27 04:33N 40°45' E 014°15'1716.8
2015-Mar-27 03:33N 40°29' E 014°07'2117.7
2015-Mar-27 02:23N 40°09' E 014°01'9117.9
2015-Mar-26 21:19N 38°40' E 013°35'1418.6
2015-Mar-26 20:33N 38°27' E 013°31'1818.6
2015-Mar-26 19:33N 38°09' E 013°26'3 3.0
2015-Mar-26 18:33N 38°08' E 013°22'0 0.0
2015-Mar-26 17:33N 38°08' E 013°22'0 0.0
2015-Mar-26 16:33N 38°08' E 013°22'0 0.0
2015-Mar-26 15:33N 38°08' E 013°22'0 0.0
2015-Mar-26 14:33N 38°08' E 013°22'0 0.0
2015-Mar-26 13:33N 38°08' E 013°22'0 0.0
2015-Mar-26 12:33N 38°08' E 013°22'0 0.0
2015-Mar-26 11:33N 38°08' E 013°22'0 0.0
2015-Mar-26 10:33N 38°08' E 013°22'0 0.0
2015-Mar-26 09:33N 38°08' E 013°22'0 0.0
2015-Mar-26 08:33N 38°08' E 013°22'0 0.0
2015-Mar-26 07:33N 38°08' E 013°22'0 0.0
2015-Mar-26 06:33N 38°08' E 013°22'0 0.0
2015-Mar-26 05:33N 38°08' E 013°22'7 6.6
2015-Mar-26 04:34N 38°14' E 013°26'1818.0
2015-Mar-26 03:33N 38°31' E 013°32'1817.9
2015-Mar-26 02:34N 38°49' E 013°37'1817.7
2015-Mar-26 01:33N 39°06' E 013°42'1717.0
2015-Mar-26 00:33N 39°23' E 013°46'3716.9
2015-Mar-25 22:22N 39°59' E 013°57'1417.5
2015-Mar-25 21:33N 40°12' E 014°01'1817.8
2015-Mar-25 20:34N 40°30' E 014°06'1817.8
2015-Mar-25 19:33N 40°46' E 014°15'4 0.7
2015-Mar-25 13:25N 40°50' E 014°15'6 0.7
2015-Mar-25 04:33N 40°45' E 014°14'1817.9
2015-Mar-25 03:33N 40°27' E 014°07'11017.6
2015-Mar-24 21:18N 38°40' E 013°35'1317.8
2015-Mar-24 20:33N 38°27' E 013°31'1918.8
2015-Mar-24 19:33N 38°09' E 013°26'3 3.2
2015-Mar-24 18:33N 38°08' E 013°22'0 0.0
2015-Mar-24 17:33N 38°08' E 013°22'0 0.0
2015-Mar-24 16:33N 38°08' E 013°22'0 0.0
2015-Mar-24 15:33N 38°08' E 013°22'0 0.0
2015-Mar-24 14:33N 38°08' E 013°22'0 0.0
2015-Mar-24 13:33N 38°08' E 013°22'0 0.0
2015-Mar-24 12:33N 38°08' E 013°22'0 0.0
2015-Mar-24 11:33N 38°08' E 013°22'0 0.0
2015-Mar-24 10:33N 38°08' E 013°22'0 0.0
2015-Mar-24 09:33N 38°08' E 013°22'0 0.0
2015-Mar-24 08:33N 38°08' E 013°22'0 0.0
2015-Mar-24 07:33N 38°08' E 013°22'0 0.0
2015-Mar-24 06:33N 38°08' E 013°22'0 0.0
2015-Mar-24 05:33N 38°08' E 013°22'6 6.4
2015-Mar-24 04:33N 38°14' E 013°26'1515.3
2015-Mar-24 03:33N 38°29' E 013°30'1716.9
2015-Mar-24 02:33N 38°45' E 013°34'1717.5
2015-Mar-24 01:33N 39°02' E 013°39'1717.3
2015-Mar-24 00:33N 39°19' E 013°44'5517.9
2015-Mar-23 21:28N 40°13' E 014°01'1718.3
2015-Mar-23 20:33N 40°29' E 014°06'1818.5
2015-Mar-23 19:33N 40°46' E 014°15'0 0.0
2015-Mar-23 04:33N 40°46' E 014°15'1616.3
2015-Mar-23 03:33N 40°31' E 014°07'1817.4
2015-Mar-23 02:32N 40°14' E 014°02'9318.3
2015-Mar-22 21:29N 38°43' E 013°36'1516.4
2015-Mar-22 20:34N 38°28' E 013°32'1717.0
2015-Mar-22 19:34N 38°12' E 013°27'5 5.1
2015-Mar-22 18:31N 38°08' E 013°22'0 0.0
2015-Mar-22 17:31N 38°08' E 013°22'0 0.0
2015-Mar-22 16:22N 38°08' E 013°22'0 0.0
2015-Mar-22 15:25N 38°08' E 013°22'0 0.0
2015-Mar-22 14:25N 38°08' E 013°22'0 0.0
2015-Mar-22 13:22N 38°08' E 013°22'0 0.0
2015-Mar-22 12:28N 38°08' E 013°22'0 0.0
2015-Mar-22 11:28N 38°08' E 013°22'0 0.0
2015-Mar-22 10:31N 38°08' E 013°22'0 0.0
2015-Mar-22 09:31N 38°08' E 013°22'0 0.0
2015-Mar-22 08:31N 38°08' E 013°22'0 0.0
2015-Mar-22 07:19N 38°08' E 013°22'0 0.0
2015-Mar-22 06:16N 38°08' E 013°22'0 0.0
2015-Mar-22 05:31N 38°08' E 013°22'7 6.9
2015-Mar-22 04:33N 38°14' E 013°26'1616.0
2015-Mar-22 03:32N 38°30' E 013°31'10617.7
2015-Mar-21 21:32N 40°13' E 014°01'1817.9
2015-Mar-21 20:33N 40°30' E 014°06'1818.2
2015-Mar-21 19:33N 40°47' E 014°16'3 0.2
2015-Mar-21 04:33N 40°44' E 014°14'1515.3
2015-Mar-21 03:34N 40°30' E 014°07'1916.3
2015-Mar-21 02:24N 40°12' E 014°01'9217.8
2015-Mar-20 21:13N 38°42' E 013°35'1218.2
2015-Mar-20 20:33N 38°30' E 013°32'1918.8
2015-Mar-20 19:33N 38°12' E 013°27'  
Track history (hours):
 
Tides and Currents Weather Stations Pressure Air Temp Water Temp Dewpoint Dewpoint Depression Visibility Wind Speed Wind Dir Waves Ship Positions

Snav Lazio

Last reported at 2015-Mar-30 19:33 UTC. Time now 2015-Mar-30 20:07 UTC.
Position N 38°24' E 013°30'.

Length 162 m; draft 6 m.

Type: Passenger vessel. MMSI: 247163100.

Date/timePositionNaut miles runAvg speedWind from/ knotsBaromVisibWave heightAir tempDewpointWater temp
2015-Mar-30 19:33N 38°24' E 013°30'1717.0
2015-Mar-30 18:33N 38°08' E 013°24'2 1.6
2015-Mar-30 17:31N 38°08' E 013°22'0 0.0
2015-Mar-30 16:31N 38°08' E 013°22'0 0.0
2015-Mar-30 15:31N 38°08' E 013°22'0 0.0
2015-Mar-30 14:31N 38°08' E 013°22'0 0.0
2015-Mar-30 13:31N 38°08' E 013°22'0 0.0
2015-Mar-30 12:31N 38°08' E 013°22'0 0.0
2015-Mar-30 11:31N 38°08' E 013°22'0 0.0
2015-Mar-30 10:31N 38°08' E 013°22'0 0.0
2015-Mar-30 09:31N 38°08' E 013°22'0 0.0
2015-Mar-30 08:31N 38°08' E 013°22'0 0.0
2015-Mar-30 07:31N 38°08' E 013°22'0 0.0
2015-Mar-30 06:31N 38°08' E 013°22'0 0.0
2015-Mar-30 05:31N 38°08' E 013°22'0 0.0
2015-Mar-30 04:31N 38°08' E 013°22'8 8.1
2015-Mar-30 03:33N 38°15' E 013°26'1818.1
2015-Mar-30 02:33N 38°33' E 013°32'1818.0
2015-Mar-30 01:32N 38°51' E 013°37'1818.1
2015-Mar-30 00:33N 39°08' E 013°41'1818.0
2015-Mar-29 23:33N 39°26' E 013°46'1818.0
2015-Mar-29 22:33N 39°43' E 013°52'1817.0
2015-Mar-29 21:31N 40°00' E 013°57'1616.5
2015-Mar-29 20:33N 40°16' E 014°01'1717.0
2015-Mar-29 19:34N 40°32' E 014°06'1716.8
2015-Mar-29 18:33N 40°48' E 014°16'2 0.1
2015-Mar-29 04:33N 40°49' E 014°17'1818.0
2015-Mar-29 03:33N 40°33' E 014°08'2018.3
2015-Mar-29 02:28N 40°13' E 014°02'10718.1
2015-Mar-28 20:33N 38°29' E 013°31'1818.2
2015-Mar-28 19:33N 38°11' E 013°26'5 4.7
2015-Mar-28 18:32N 38°08' E 013°22'0 0.0
2015-Mar-28 17:33N 38°08' E 013°22'0 0.0
2015-Mar-28 16:33N 38°08' E 013°22'0 0.0
2015-Mar-28 15:33N 38°08' E 013°22'0 0.0
2015-Mar-28 14:33N 38°08' E 013°22'0 0.0
2015-Mar-28 13:33N 38°08' E 013°22'0 0.0
2015-Mar-28 12:33N 38°08' E 013°22'0 0.0
2015-Mar-28 11:33N 38°08' E 013°22'0 0.0
2015-Mar-28 10:33N 38°08' E 013°22'0 0.0
2015-Mar-28 09:33N 38°08' E 013°22'0 0.0
2015-Mar-28 08:33N 38°08' E 013°22'0 0.0
2015-Mar-28 07:33N 38°08' E 013°22'0 0.0
2015-Mar-28 06:33N 38°08' E 013°22'0 0.0
2015-Mar-28 05:32N 38°08' E 013°22'13316.6
2015-Mar-27 21:33N 40°17' E 014°02'1818.4
2015-Mar-27 20:33N 40°35' E 014°07'12 0.7
2015-Mar-27 04:33N 40°45' E 014°15'1716.8
2015-Mar-27 03:33N 40°29' E 014°07'2117.7
2015-Mar-27 02:23N 40°09' E 014°01'9117.9
2015-Mar-26 21:19N 38°40' E 013°35'1418.6
2015-Mar-26 20:33N 38°27' E 013°31'1818.6
2015-Mar-26 19:33N 38°09' E 013°26'3 3.0
2015-Mar-26 18:33N 38°08' E 013°22'0 0.0
2015-Mar-26 17:33N 38°08' E 013°22'0 0.0
2015-Mar-26 16:33N 38°08' E 013°22'0 0.0
2015-Mar-26 15:33N 38°08' E 013°22'0 0.0
2015-Mar-26 14:33N 38°08' E 013°22'0 0.0
2015-Mar-26 13:33N 38°08' E 013°22'0 0.0
2015-Mar-26 12:33N 38°08' E 013°22'0 0.0
2015-Mar-26 11:33N 38°08' E 013°22'0 0.0
2015-Mar-26 10:33N 38°08' E 013°22'0 0.0
2015-Mar-26 09:33N 38°08' E 013°22'0 0.0
2015-Mar-26 08:33N 38°08' E 013°22'0 0.0
2015-Mar-26 07:33N 38°08' E 013°22'0 0.0
2015-Mar-26 06:33N 38°08' E 013°22'0 0.0
2015-Mar-26 05:33N 38°08' E 013°22'7 6.6
2015-Mar-26 04:34N 38°14' E 013°26'1818.0
2015-Mar-26 03:33N 38°31' E 013°32'1817.9
2015-Mar-26 02:34N 38°49' E 013°37'1817.7
2015-Mar-26 01:33N 39°06' E 013°42'1717.0
2015-Mar-26 00:33N 39°23' E 013°46'3716.9
2015-Mar-25 22:22N 39°59' E 013°57'1417.5
2015-Mar-25 21:33N 40°12' E 014°01'1817.8
2015-Mar-25 20:34N 40°30' E 014°06'1817.8
2015-Mar-25 19:33N 40°46' E 014°15'4 0.7
2015-Mar-25 13:25N 40°50' E 014°15'6 0.7
2015-Mar-25 04:33N 40°45' E 014°14'1817.9
2015-Mar-25 03:33N 40°27' E 014°07'11017.6
2015-Mar-24 21:18N 38°40' E 013°35'1317.8
2015-Mar-24 20:33N 38°27' E 013°31'1918.8
2015-Mar-24 19:33N 38°09' E 013°26'3 3.2
2015-Mar-24 18:33N 38°08' E 013°22'0 0.0
2015-Mar-24 17:33N 38°08' E 013°22'0 0.0
2015-Mar-24 16:33N 38°08' E 013°22'0 0.0
2015-Mar-24 15:33N 38°08' E 013°22'0 0.0
2015-Mar-24 14:33N 38°08' E 013°22'0 0.0
2015-Mar-24 13:33N 38°08' E 013°22'0 0.0
2015-Mar-24 12:33N 38°08' E 013°22'0 0.0
2015-Mar-24 11:33N 38°08' E 013°22'0 0.0
2015-Mar-24 10:33N 38°08' E 013°22'0 0.0
2015-Mar-24 09:33N 38°08' E 013°22'0 0.0
2015-Mar-24 08:33N 38°08' E 013°22'0 0.0
2015-Mar-24 07:33N 38°08' E 013°22'0 0.0
2015-Mar-24 06:33N 38°08' E 013°22'0 0.0
2015-Mar-24 05:33N 38°08' E 013°22'6 6.4
2015-Mar-24 04:33N 38°14' E 013°26'1515.3
2015-Mar-24 03:33N 38°29' E 013°30'1716.9
2015-Mar-24 02:33N 38°45' E 013°34'1717.5
2015-Mar-24 01:33N 39°02' E 013°39'1717.3
2015-Mar-24 00:33N 39°19' E 013°44'5517.9
2015-Mar-23 21:28N 40°13' E 014°01'1718.3
2015-Mar-23 20:33N 40°29' E 014°06'1818.5
2015-Mar-23 19:33N 40°46' E 014°15'0 0.0
2015-Mar-23 04:33N 40°46' E 014°15'1616.3
2015-Mar-23 03:33N 40°31' E 014°07'1817.4
2015-Mar-23 02:32N 40°14' E 014°02'9318.3
2015-Mar-22 21:29N 38°43' E 013°36'1516.4
2015-Mar-22 20:34N 38°28' E 013°32'1717.0
2015-Mar-22 19:34N 38°12' E 013°27'5 5.1
2015-Mar-22 18:31N 38°08' E 013°22'0 0.0
2015-Mar-22 17:31N 38°08' E 013°22'0 0.0
2015-Mar-22 16:22N 38°08' E 013°22'0 0.0
2015-Mar-22 15:25N 38°08' E 013°22'0 0.0
2015-Mar-22 14:25N 38°08' E 013°22'0 0.0
2015-Mar-22 13:22N 38°08' E 013°22'0 0.0
2015-Mar-22 12:28N 38°08' E 013°22'0 0.0
2015-Mar-22 11:28N 38°08' E 013°22'0 0.0
2015-Mar-22 10:31N 38°08' E 013°22'0 0.0
2015-Mar-22 09:31N 38°08' E 013°22'0 0.0
2015-Mar-22 08:31N 38°08' E 013°22'0 0.0
2015-Mar-22 07:19N 38°08' E 013°22'0 0.0
2015-Mar-22 06:16N 38°08' E 013°22'0 0.0
2015-Mar-22 05:31N 38°08' E 013°22'7 6.9
2015-Mar-22 04:33N 38°14' E 013°26'1616.0
2015-Mar-22 03:32N 38°30' E 013°31'10617.7
2015-Mar-21 21:32N 40°13' E 014°01'1817.9
2015-Mar-21 20:33N 40°30' E 014°06'1818.2
2015-Mar-21 19:33N 40°47' E 014°16'3 0.2
2015-Mar-21 04:33N 40°44' E 014°14'1515.3
2015-Mar-21 03:34N 40°30' E 014°07'1916.3
2015-Mar-21 02:24N 40°12' E 014°01'9217.8
2015-Mar-20 21:13N 38°42' E 013°35'1218.2
2015-Mar-20 20:33N 38°30' E 013°32'1918.8
2015-Mar-20 19:33N 38°12' E 013°27'  

Dump ship's entire track history